sensor_id;sensor_type;location;lat;lon;timestamp;temperature;humidity
51739;DHT22;37815;52.692;6.226;2023-02-26T00:02:35;7.40;99.90
51739;DHT22;37815;52.692;6.226;2023-02-26T00:07:36;7.40;99.90
51739;DHT22;37815;52.692;6.226;2023-02-26T00:12:37;7.40;99.90
51739;DHT22;37815;52.692;6.226;2023-02-26T00:17:58;7.40;99.90
51739;DHT22;37815;52.692;6.226;2023-02-26T00:23:00;7.40;99.90
51739;DHT22;37815;52.692;6.226;2023-02-26T00:28:01;7.30;99.90
51739;DHT22;37815;52.692;6.226;2023-02-26T00:33:02;7.30;99.90
51739;DHT22;37815;52.692;6.226;2023-02-26T00:38:09;7.30;99.90
51739;DHT22;37815;52.692;6.226;2023-02-26T00:43:18;7.30;99.90
51739;DHT22;37815;52.692;6.226;2023-02-26T00:48:31;7.30;99.90
51739;DHT22;37815;52.692;6.226;2023-02-26T00:53:46;7.30;99.90
51739;DHT22;37815;52.692;6.226;2023-02-26T00:58:48;7.20;99.90
51739;DHT22;37815;52.692;6.226;2023-02-26T01:03:49;7.20;99.90
51739;DHT22;37815;52.692;6.226;2023-02-26T01:09:04;7.20;99.90
51739;DHT22;37815;52.692;6.226;2023-02-26T01:14:07;7.20;99.90
51739;DHT22;37815;52.692;6.226;2023-02-26T01:19:21;7.70;99.90
51739;DHT22;37815;52.692;6.226;2023-02-26T01:24:24;7.20;99.90
51739;DHT22;37815;52.692;6.226;2023-02-26T01:29:25;7.20;99.90
51739;DHT22;37815;52.692;6.226;2023-02-26T01:34:57;7.10;99.90
51739;DHT22;37815;52.692;6.226;2023-02-26T01:40:20;7.10;99.90
51739;DHT22;37815;52.692;6.226;2023-02-26T01:45:33;7.10;99.90
51739;DHT22;37815;52.692;6.226;2023-02-26T01:50:36;7.10;99.90
51739;DHT22;37815;52.692;6.226;2023-02-26T01:55:40;7.10;99.90
51739;DHT22;37815;52.692;6.226;2023-02-26T02:00:42;7.00;99.90
51739;DHT22;37815;52.692;6.226;2023-02-26T02:05:50;7.00;99.90
51739;DHT22;37815;52.692;6.226;2023-02-26T02:10:51;7.00;99.90
51739;DHT22;37815;52.692;6.226;2023-02-26T02:16:11;6.90;99.90
51739;DHT22;37815;52.692;6.226;2023-02-26T02:26:36;6.90;99.90
51739;DHT22;37815;52.692;6.226;2023-02-26T02:31:59;6.90;99.90
51739;DHT22;37815;52.692;6.226;2023-02-26T02:37:10;6.90;99.90
51739;DHT22;37815;52.692;6.226;2023-02-26T02:42:31;6.90;99.90
51739;DHT22;37815;52.692;6.226;2023-02-26T02:47:37;6.90;99.90
51739;DHT22;37815;52.692;6.226;2023-02-26T02:58:19;6.80;99.90
51739;DHT22;37815;52.692;6.226;2023-02-26T03:04:21;6.80;99.90
51739;DHT22;37815;52.692;6.226;2023-02-26T03:08:57;6.80;99.90
51739;DHT22;37815;52.692;6.226;2023-02-26T03:14:01;6.80;99.90
51739;DHT22;37815;52.692;6.226;2023-02-26T03:19:29;6.80;99.90
51739;DHT22;37815;52.692;6.226;2023-02-26T03:24:36;6.80;99.90
51739;DHT22;37815;52.692;6.226;2023-02-26T03:34:59;6.70;99.90
51739;DHT22;37815;52.692;6.226;2023-02-26T03:40:05;6.70;99.90
51739;DHT22;37815;52.692;6.226;2023-02-26T03:45:13;6.70;99.90
51739;DHT22;37815;52.692;6.226;2023-02-26T03:50:37;6.00;99.90
51739;DHT22;37815;52.692;6.226;2023-02-26T03:55:49;6.70;99.90
51739;DHT22;37815;52.692;6.226;2023-02-26T04:01:02;6.60;99.90
51739;DHT22;37815;52.692;6.226;2023-02-26T04:06:04;6.60;99.90
51739;DHT22;37815;52.692;6.226;2023-02-26T04:11:11;6.60;99.90
51739;DHT22;37815;52.692;6.226;2023-02-26T04:16:13;6.60;99.90
51739;DHT22;37815;52.692;6.226;2023-02-26T04:21:16;6.60;99.90
51739;DHT22;37815;52.692;6.226;2023-02-26T04:26:18;6.60;99.90
51739;DHT22;37815;52.692;6.226;2023-02-26T04:31:18;6.50;99.90
51739;DHT22;37815;52.692;6.226;2023-02-26T04:36:19;6.50;99.90
51739;DHT22;37815;52.692;6.226;2023-02-26T04:41:20;6.50;99.90
51739;DHT22;37815;52.692;6.226;2023-02-26T04:46:21;6.50;99.90
51739;DHT22;37815;52.692;6.226;2023-02-26T04:51:22;6.50;99.90
51739;DHT22;37815;52.692;6.226;2023-02-26T04:56:22;6.40;99.90
51739;DHT22;37815;52.692;6.226;2023-02-26T05:01:23;6.40;99.90
51739;DHT22;37815;52.692;6.226;2023-02-26T05:06:24;6.40;99.90
51739;DHT22;37815;52.692;6.226;2023-02-26T05:11:24;6.40;99.90
51739;DHT22;37815;52.692;6.226;2023-02-26T05:16:25;6.40;99.90
51739;DHT22;37815;52.692;6.226;2023-02-26T05:21:26;6.40;99.90
51739;DHT22;37815;52.692;6.226;2023-02-26T05:26:26;6.40;99.90
51739;DHT22;37815;52.692;6.226;2023-02-26T05:31:27;6.30;99.90
51739;DHT22;37815;52.692;6.226;2023-02-26T05:36:29;6.30;99.90
51739;DHT22;37815;52.692;6.226;2023-02-26T05:41:29;6.30;99.90
51739;DHT22;37815;52.692;6.226;2023-02-26T05:46:30;6.30;99.90
51739;DHT22;37815;52.692;6.226;2023-02-26T05:51:31;6.30;99.90
51739;DHT22;37815;52.692;6.226;2023-02-26T05:56:31;6.30;99.90
51739;DHT22;37815;52.692;6.226;2023-02-26T06:01:32;6.30;99.90
51739;DHT22;37815;52.692;6.226;2023-02-26T06:06:33;6.50;99.90
51739;DHT22;37815;52.692;6.226;2023-02-26T06:11:34;6.20;99.90
51739;DHT22;37815;52.692;6.226;2023-02-26T06:16:35;6.20;99.90
51739;DHT22;37815;52.692;6.226;2023-02-26T06:21:35;6.20;99.90
51739;DHT22;37815;52.692;6.226;2023-02-26T06:26:36;6.20;99.90
51739;DHT22;37815;52.692;6.226;2023-02-26T06:31:36;6.20;99.90
51739;DHT22;37815;52.692;6.226;2023-02-26T06:36:37;6.20;99.90
51739;DHT22;37815;52.692;6.226;2023-02-26T06:41:38;6.20;99.90
51739;DHT22;37815;52.692;6.226;2023-02-26T06:46:39;6.20;99.90
51739;DHT22;37815;52.692;6.226;2023-02-26T06:51:40;6.20;99.90
51739;DHT22;37815;52.692;6.226;2023-02-26T06:56:40;6.20;99.90
51739;DHT22;37815;52.692;6.226;2023-02-26T07:01:41;6.10;99.90
51739;DHT22;37815;52.692;6.226;2023-02-26T07:06:41;6.10;99.90
51739;DHT22;37815;52.692;6.226;2023-02-26T07:11:42;6.10;99.90
51739;DHT22;37815;52.692;6.226;2023-02-26T07:16:43;6.10;99.90
51739;DHT22;37815;52.692;6.226;2023-02-26T07:21:44;6.10;99.90
51739;DHT22;37815;52.692;6.226;2023-02-26T07:26:44;6.10;99.90
51739;DHT22;37815;52.692;6.226;2023-02-26T07:31:45;6.10;99.90
51739;DHT22;37815;52.692;6.226;2023-02-26T07:36:45;6.10;99.90
51739;DHT22;37815;52.692;6.226;2023-02-26T07:41:46;6.10;99.90
51739;DHT22;37815;52.692;6.226;2023-02-26T07:46:47;6.20;99.90
51739;DHT22;37815;52.692;6.226;2023-02-26T07:51:47;6.20;99.90
51739;DHT22;37815;52.692;6.226;2023-02-26T07:56:48;6.20;99.90
51739;DHT22;37815;52.692;6.226;2023-02-26T08:01:56;6.20;99.90
51739;DHT22;37815;52.692;6.226;2023-02-26T08:06:57;6.20;99.90
51739;DHT22;37815;52.692;6.226;2023-02-26T08:11:57;7.30;99.90
51739;DHT22;37815;52.692;6.226;2023-02-26T08:16:58;6.30;99.90
51739;DHT22;37815;52.692;6.226;2023-02-26T08:21:59;6.30;99.90
51739;DHT22;37815;52.692;6.226;2023-02-26T08:26:59;6.40;99.90
51739;DHT22;37815;52.692;6.226;2023-02-26T08:32:00;6.40;99.90
51739;DHT22;37815;52.692;6.226;2023-02-26T08:37:00;6.50;99.90
51739;DHT22;37815;52.692;6.226;2023-02-26T08:42:01;6.50;99.90
51739;DHT22;37815;52.692;6.226;2023-02-26T08:47:02;6.60;99.90
51739;DHT22;37815;52.692;6.226;2023-02-26T08:52:03;6.70;99.90
51739;DHT22;37815;52.692;6.226;2023-02-26T08:57:03;6.80;99.90
51739;DHT22;37815;52.692;6.226;2023-02-26T09:02:04;6.80;99.80
51739;DHT22;37815;52.692;6.226;2023-02-26T09:07:05;6.90;99.80
51739;DHT22;37815;52.692;6.226;2023-02-26T09:12:06;7.00;99.80
51739;DHT22;37815;52.692;6.226;2023-02-26T09:17:06;7.00;99.70
51739;DHT22;37815;52.692;6.226;2023-02-26T09:22:07;7.00;99.70
51739;DHT22;37815;52.692;6.226;2023-02-26T09:27:08;7.00;99.80
51739;DHT22;37815;52.692;6.226;2023-02-26T09:32:09;7.10;99.80
51739;DHT22;37815;52.692;6.226;2023-02-26T09:37:09;7.10;99.80
51739;DHT22;37815;52.692;6.226;2023-02-26T09:47:50;7.20;99.80
51739;DHT22;37815;52.692;6.226;2023-02-26T09:52:59;7.30;99.80
51739;DHT22;37815;52.692;6.226;2023-02-26T09:58:02;7.40;99.70
51739;DHT22;37815;52.692;6.226;2023-02-26T10:08:15;7.50;99.70
51739;DHT22;37815;52.692;6.226;2023-02-26T10:18:41;7.60;99.70
51739;DHT22;37815;52.692;6.226;2023-02-26T10:23:48;7.60;99.70
51739;DHT22;37815;52.692;6.226;2023-02-26T10:40:01;7.80;99.70
51739;DHT22;37815;52.692;6.226;2023-02-26T10:50:34;8.00;99.70
51739;DHT22;37815;52.692;6.226;2023-02-26T10:55:51;8.00;99.70
51739;DHT22;37815;52.692;6.226;2023-02-26T11:00:55;8.10;99.70
51739;DHT22;37815;52.692;6.226;2023-02-26T11:05:55;8.10;99.70
51739;DHT22;37815;52.692;6.226;2023-02-26T11:11:02;8.30;98.50
51739;DHT22;37815;52.692;6.226;2023-02-26T11:16:16;6.80;96.10
51739;DHT22;37815;52.692;6.226;2023-02-26T11:21:27;6.60;96.10
51739;DHT22;37815;52.692;6.226;2023-02-26T11:26:31;6.80;97.30
51739;DHT22;37815;52.692;6.226;2023-02-26T11:31:33;7.20;97.30
51739;DHT22;37815;52.692;6.226;2023-02-26T11:36:38;7.50;97.30
51739;DHT22;37815;52.692;6.226;2023-02-26T11:41:39;7.70;97.30
51739;DHT22;37815;52.692;6.226;2023-02-26T11:47:02;7.90;97.40
51739;DHT22;37815;52.692;6.226;2023-02-26T11:52:15;8.00;97.30
51739;DHT22;37815;52.692;6.226;2023-02-26T11:57:19;8.10;97.50
51739;DHT22;37815;52.692;6.226;2023-02-26T12:02:24;8.20;97.50
51739;DHT22;37815;52.692;6.226;2023-02-26T12:07:27;8.40;97.60
51739;DHT22;37815;52.692;6.226;2023-02-26T12:12:53;8.30;97.60
51739;DHT22;37815;52.692;6.226;2023-02-26T12:18:17;8.40;97.50
51739;DHT22;37815;52.692;6.226;2023-02-26T12:28:47;8.40;97.80
51739;DHT22;37815;52.692;6.226;2023-02-26T12:44:19;8.50;98.00
51739;DHT22;37815;52.692;6.226;2023-02-26T13:05:18;8.60;98.10
51739;DHT22;37815;52.692;6.226;2023-02-26T13:15:54;9.40;98.20
51739;DHT22;37815;52.692;6.226;2023-02-26T13:21:03;8.60;98.20
51739;DHT22;37815;52.692;6.226;2023-02-26T13:26:08;8.60;98.30
51739;DHT22;37815;52.692;6.226;2023-02-26T13:36:18;8.60;98.30
51739;DHT22;37815;52.692;6.226;2023-02-26T13:52:28;8.60;98.50
51739;DHT22;37815;52.692;6.226;2023-02-26T13:57:50;8.60;98.60
51739;DHT22;37815;52.692;6.226;2023-02-26T14:02:55;8.60;98.60
51739;DHT22;37815;52.692;6.226;2023-02-26T14:13:20;8.70;98.70
51739;DHT22;37815;52.692;6.226;2023-02-26T14:23:40;8.80;98.70
51739;DHT22;37815;52.692;6.226;2023-02-26T14:28:44;8.90;98.80
51739;DHT22;37815;52.692;6.226;2023-02-26T14:33:58;8.90;98.70
51739;DHT22;37815;52.692;6.226;2023-02-26T14:39:01;9.00;98.70
51739;DHT22;37815;52.692;6.226;2023-02-26T14:44:12;9.00;98.70
51739;DHT22;37815;52.692;6.226;2023-02-26T14:49:43;9.10;98.70
51739;DHT22;37815;52.692;6.226;2023-02-26T14:54:52;9.20;98.80
51739;DHT22;37815;52.692;6.226;2023-02-26T15:21:09;9.50;99.00
51739;DHT22;37815;52.692;6.226;2023-02-26T15:26:30;9.50;99.00
51739;DHT22;37815;52.692;6.226;2023-02-26T15:31:43;9.60;99.00
51739;DHT22;37815;52.692;6.226;2023-02-26T15:36:48;9.70;99.10
51739;DHT22;37815;52.692;6.226;2023-02-26T15:41:50;10.10;99.20
51739;DHT22;37815;52.692;6.226;2023-02-26T15:47:00;9.60;99.20
51739;DHT22;37815;52.692;6.226;2023-02-26T15:52:03;9.50;99.40
51739;DHT22;37815;52.692;6.226;2023-02-26T15:57:04;9.40;99.60
51739;DHT22;37815;52.692;6.226;2023-02-26T16:02:17;9.30;99.70
51739;DHT22;37815;52.692;6.226;2023-02-26T16:07:19;9.30;99.90
51739;DHT22;37815;52.692;6.226;2023-02-26T16:12:23;9.20;99.90
51739;DHT22;37815;52.692;6.226;2023-02-26T16:17:31;9.10;99.80
51739;DHT22;37815;52.692;6.226;2023-02-26T16:22:36;9.00;98.60
51739;DHT22;37815;52.692;6.226;2023-02-26T16:27:37;8.70;99.60
51739;DHT22;37815;52.692;6.226;2023-02-26T16:32:40;8.80;99.90
51739;DHT22;37815;52.692;6.226;2023-02-26T16:37:44;8.80;99.90
51739;DHT22;37815;52.692;6.226;2023-02-26T16:42:59;8.00;99.80
51739;DHT22;37815;52.692;6.226;2023-02-26T16:48:23;8.80;99.90
51739;DHT22;37815;52.692;6.226;2023-02-26T16:53:37;8.70;99.90
51739;DHT22;37815;52.692;6.226;2023-02-26T16:58:45;8.70;99.90
51739;DHT22;37815;52.692;6.226;2023-02-26T17:03:49;8.70;99.90
51739;DHT22;37815;52.692;6.226;2023-02-26T17:08:59;8.70;99.90
51739;DHT22;37815;52.692;6.226;2023-02-26T17:14:19;8.70;99.90
51739;DHT22;37815;52.692;6.226;2023-02-26T17:19:21;8.70;99.90
51739;DHT22;37815;52.692;6.226;2023-02-26T17:24:39;8.60;99.90
51739;DHT22;37815;52.692;6.226;2023-02-26T17:29:43;8.60;99.30
51739;DHT22;37815;52.692;6.226;2023-02-26T17:34:44;8.60;99.50
51739;DHT22;37815;52.692;6.226;2023-02-26T17:39:45;8.60;99.60
51739;DHT22;37815;52.692;6.226;2023-02-26T17:44:46;8.50;99.60
51739;DHT22;37815;52.692;6.226;2023-02-26T17:49:47;8.50;99.70
51739;DHT22;37815;52.692;6.226;2023-02-26T17:54:48;8.50;99.70
51739;DHT22;37815;52.692;6.226;2023-02-26T17:59:48;8.50;99.70
51739;DHT22;37815;52.692;6.226;2023-02-26T18:04:49;8.40;99.70
51739;DHT22;37815;52.692;6.226;2023-02-26T18:09:50;8.40;99.70
51739;DHT22;37815;52.692;6.226;2023-02-26T18:14:50;8.40;99.60
51739;DHT22;37815;52.692;6.226;2023-02-26T18:19:51;8.40;99.60
51739;DHT22;37815;52.692;6.226;2023-02-26T18:24:53;8.10;98.90
51739;DHT22;37815;52.692;6.226;2023-02-26T18:29:54;8.00;99.30
51739;DHT22;37815;52.692;6.226;2023-02-26T18:34:54;8.00;99.40
51739;DHT22;37815;52.692;6.226;2023-02-26T18:39:55;8.00;99.30
51739;DHT22;37815;52.692;6.226;2023-02-26T18:44:55;8.10;99.20
51739;DHT22;37815;52.692;6.226;2023-02-26T18:49:56;8.10;99.10
51739;DHT22;37815;52.692;6.226;2023-02-26T18:54:57;8.10;99.10
51739;DHT22;37815;52.692;6.226;2023-02-26T18:59:59;8.10;99.00
51739;DHT22;37815;52.692;6.226;2023-02-26T19:05:00;8.10;99.00
51739;DHT22;37815;52.692;6.226;2023-02-26T19:10:01;8.10;99.00
51739;DHT22;37815;52.692;6.226;2023-02-26T19:15:02;8.00;99.00
51739;DHT22;37815;52.692;6.226;2023-02-26T19:20:04;8.00;99.00
51739;DHT22;37815;52.692;6.226;2023-02-26T19:25:05;8.00;99.00
51739;DHT22;37815;52.692;6.226;2023-02-26T19:30:06;8.00;99.10
51739;DHT22;37815;52.692;6.226;2023-02-26T19:35:07;8.00;99.10
51739;DHT22;37815;52.692;6.226;2023-02-26T19:40:09;7.90;99.10
51739;DHT22;37815;52.692;6.226;2023-02-26T19:45:15;7.90;99.10
51739;DHT22;37815;52.692;6.226;2023-02-26T19:50:16;7.90;99.10
51739;DHT22;37815;52.692;6.226;2023-02-26T19:55:19;7.90;99.10
51739;DHT22;37815;52.692;6.226;2023-02-26T20:00:20;7.80;99.40
51739;DHT22;37815;52.692;6.226;2023-02-26T20:05:20;7.80;99.10
51739;DHT22;37815;52.692;6.226;2023-02-26T20:10:21;7.80;99.20
51739;DHT22;37815;52.692;6.226;2023-02-26T20:15:24;7.70;99.20
51739;DHT22;37815;52.692;6.226;2023-02-26T20:20:24;7.70;99.20
51739;DHT22;37815;52.692;6.226;2023-02-26T20:25:26;7.70;99.20
51739;DHT22;37815;52.692;6.226;2023-02-26T20:30:27;7.70;99.20
51739;DHT22;37815;52.692;6.226;2023-02-26T20:35:27;7.60;99.20
51739;DHT22;37815;52.692;6.226;2023-02-26T20:40:28;7.60;99.20
51739;DHT22;37815;52.692;6.226;2023-02-26T20:45:29;7.60;99.30
51739;DHT22;37815;52.692;6.226;2023-02-26T20:50:30;7.60;99.30
51739;DHT22;37815;52.692;6.226;2023-02-26T20:55:31;7.60;99.30
51739;DHT22;37815;52.692;6.226;2023-02-26T21:00:31;7.50;99.30
51739;DHT22;37815;52.692;6.226;2023-02-26T21:05:33;7.50;99.30
51739;DHT22;37815;52.692;6.226;2023-02-26T21:10:34;7.50;99.30
51739;DHT22;37815;52.692;6.226;2023-02-26T21:15:35;7.50;99.30
51739;DHT22;37815;52.692;6.226;2023-02-26T21:20:36;7.40;99.30
51739;DHT22;37815;52.692;6.226;2023-02-26T21:25:37;7.70;99.30
51739;DHT22;37815;52.692;6.226;2023-02-26T21:30:38;7.40;99.30
51739;DHT22;37815;52.692;6.226;2023-02-26T21:35:39;7.40;99.30
51739;DHT22;37815;52.692;6.226;2023-02-26T21:40:40;7.30;99.30
51739;DHT22;37815;52.692;6.226;2023-02-26T21:45:41;7.30;99.30
51739;DHT22;37815;52.692;6.226;2023-02-26T21:50:43;7.30;99.30
51739;DHT22;37815;52.692;6.226;2023-02-26T21:55:44;7.30;99.30
51739;DHT22;37815;52.692;6.226;2023-02-26T22:00:44;7.30;99.30
51739;DHT22;37815;52.692;6.226;2023-02-26T22:05:48;7.20;99.30
51739;DHT22;37815;52.692;6.226;2023-02-26T22:10:48;7.20;99.30
51739;DHT22;37815;52.692;6.226;2023-02-26T22:15:49;7.30;99.30
51739;DHT22;37815;52.692;6.226;2023-02-26T22:20:50;7.20;99.30
51739;DHT22;37815;52.692;6.226;2023-02-26T22:25:50;7.20;99.30
51739;DHT22;37815;52.692;6.226;2023-02-26T22:30:51;7.20;99.30
51739;DHT22;37815;52.692;6.226;2023-02-26T22:35:55;7.20;99.30
51739;DHT22;37815;52.692;6.226;2023-02-26T22:40:56;7.20;99.30
51739;DHT22;37815;52.692;6.226;2023-02-26T22:45:57;7.10;99.30
51739;DHT22;37815;52.692;6.226;2023-02-26T22:50:57;7.10;99.30
51739;DHT22;37815;52.692;6.226;2023-02-26T22:55:58;7.10;99.30
51739;DHT22;37815;52.692;6.226;2023-02-26T23:01:04;7.10;99.30
51739;DHT22;37815;52.692;6.226;2023-02-26T23:06:06;7.60;99.40
51739;DHT22;37815;52.692;6.226;2023-02-26T23:11:07;7.00;99.30
51739;DHT22;37815;52.692;6.226;2023-02-26T23:16:10;7.00;99.30
51739;DHT22;37815;52.692;6.226;2023-02-26T23:21:10;7.00;99.30
51739;DHT22;37815;52.692;6.226;2023-02-26T23:26:11;7.00;99.30
51739;DHT22;37815;52.692;6.226;2023-02-26T23:31:12;7.00;99.30
51739;DHT22;37815;52.692;6.226;2023-02-26T23:36:13;6.90;99.30
51739;DHT22;37815;52.692;6.226;2023-02-26T23:41:14;6.90;99.30
51739;DHT22;37815;52.692;6.226;2023-02-26T23:46:15;6.90;99.30
51739;DHT22;37815;52.692;6.226;2023-02-26T23:51:15;6.90;99.40
51739;DHT22;37815;52.692;6.226;2023-02-26T23:56:16;6.90;99.40
